Time;durP1;ratioP1;P1;durP2;ratioP2;P2;SDS_P1;SDS_P2;PMS_P1;PMS_P2;Temp;Humidity;BMP_temperature;BMP_pressure;BME280_temperature;BME280_humidity;BME280_pressure;Samples;Min_cycle;Max_cycle;Signal;HPM_P1;HPM_P2
2023/08/22 00:02:19;;;;;;;;;;;;;;;26.35;44.04;99707.63;5012079;28;902;-66
2023/08/22 00:04:46;;;;;;;;;;;;;;;26.32;44.10;99703.00;5012290;28;887;-66
2023/08/22 00:07:13;;;;;;;;;;;;;;;26.33;44.26;99713.81;5012270;28;1984;-66
2023/08/22 00:09:39;;;;;;;;;;;;;;;26.34;44.02;99706.84;5012057;28;900;-65
2023/08/22 00:12:06;;;;;;;;;;;;;;;26.36;44.18;99709.94;5012039;28;844;-64
2023/08/22 00:14:33;;;;;;;;;;;;;;;26.36;44.05;99709.19;5012063;28;836;-65
2023/08/22 00:17:00;;;;;;;;;;;;;;;26.39;44.08;99710.97;5011966;28;893;-65
2023/08/22 00:19:27;;;;;;;;;;;;;;;26.47;43.84;99714.84;5011923;28;935;-65
2023/08/22 00:21:53;;;;;;;;;;;;;;;26.49;43.80;99715.09;5011936;28;824;-67
2023/08/22 00:24:20;;;;;;;;;;;;;;;26.51;43.73;99708.94;5011936;28;915;-65
2023/08/22 00:26:47;;;;;;;;;;;;;;;26.52;43.85;99711.22;5011903;28;838;-66
2023/08/22 00:29:13;;;;;;;;;;;;;;;26.50;44.05;99702.50;5011920;28;1977;-64
2023/08/22 00:31:40;;;;;;;;;;;;;;;26.53;43.94;99707.13;5011741;28;840;-65
2023/08/22 00:34:06;;;;;;;;;;;;;;;26.53;43.98;99701.44;5013303;28;879;-64
2023/08/22 00:36:33;;;;;;;;;;;;;;;26.52;44.11;99704.78;5015858;28;872;-69
2023/08/22 00:39:00;;;;;;;;;;;;;;;26.53;44.16;99704.28;5015765;28;943;-65
2023/08/22 00:41:27;;;;;;;;;;;;;;;26.52;44.06;99699.13;5015729;28;919;-64
2023/08/22 00:43:54;;;;;;;;;;;;;;;26.54;44.15;99694.47;5016074;28;1048;-67
2023/08/22 00:46:23;;;;;;;;;;;;;;;26.57;44.18;99695.56;5014563;28;1344;-67
2023/08/22 00:48:50;;;;;;;;;;;;;;;26.62;43.97;99689.88;5015552;28;1886;-65
2023/08/22 00:51:17;;;;;;;;;;;;;;;26.67;43.97;99685.47;5015561;28;863;-65
2023/08/22 00:53:44;;;;;;;;;;;;;;;26.74;44.13;99684.19;5015433;28;1242;-65
2023/08/22 00:56:11;;;;;;;;;;;;;;;26.80;44.18;99693.44;5015466;28;844;-66
2023/08/22 00:58:38;;;;;;;;;;;;;;;26.85;44.14;99692.69;5015455;28;825;-66
2023/08/22 01:01:04;;;;;;;;;;;;;;;26.84;44.21;99691.91;5015244;28;910;-64
2023/08/22 01:03:30;;;;;;;;;;;;;;;26.79;44.53;99697.59;5015436;28;833;-66
2023/08/22 01:06:00;;;;;;;;;;;;;;;26.80;44.91;99697.06;5015290;28;907;-66
2023/08/22 01:08:31;;;;;;;;;;;;;;;26.82;45.21;99696.53;5015110;28;1902;-65
2023/08/22 01:11:05;;;;;;;;;;;;;;;26.79;45.33;99703.25;5015352;28;856;-65
2023/08/22 01:13:33;;;;;;;;;;;;;;;26.70;45.45;99701.47;5015359;28;840;-65
2023/08/22 01:16:00;;;;;;;;;;;;;;;26.67;45.51;99697.59;5015102;28;832;-65
2023/08/22 01:18:28;;;;;;;;;;;;;;;26.64;45.72;99703.53;5015031;28;828;-65
2023/08/22 01:21:19;;;;;;;;;;;;;;;26.57;45.95;99695.56;5015121;28;927;-65
2023/08/22 01:23:46;;;;;;;;;;;;;;;26.49;46.19;99696.03;5009505;28;1114;-65
2023/08/22 01:26:13;;;;;;;;;;;;;;;26.47;46.32;99703.50;5014990;28;835;-66
2023/08/22 01:28:42;;;;;;;;;;;;;;;26.45;46.50;99703.25;4997136;28;1948;-65
2023/08/22 01:31:13;;;;;;;;;;;;;;;26.46;46.63;99704.81;4997147;28;1471;-65
2023/08/22 01:33:44;;;;;;;;;;;;;;;26.41;46.66;99705.56;5014795;28;828;-66
2023/08/22 01:36:10;;;;;;;;;;;;;;;26.39;46.85;99708.16;5014637;28;892;-65
2023/08/22 01:38:39;;;;;;;;;;;;;;;26.37;46.86;99708.69;5014784;28;872;-65
2023/08/22 01:41:07;;;;;;;;;;;;;;;26.40;46.72;99707.63;5014566;28;875;-64
2023/08/22 01:43:34;;;;;;;;;;;;;;;26.37;47.18;99702.22;5015113;28;1017;-64
2023/08/22 01:46:01;;;;;;;;;;;;;;;26.34;47.21;99700.44;5014770;28;1241;-64
2023/08/22 01:48:27;;;;;;;;;;;;;;;26.32;47.03;99705.84;5014495;28;1937;-64
2023/08/22 01:50:54;;;;;;;;;;;;;;;26.36;47.21;99706.34;5014399;28;954;-64
2023/08/22 01:53:20;;;;;;;;;;;;;;;26.33;47.19;99707.38;5014245;28;1384;-64
2023/08/22 01:55:47;;;;;;;;;;;;;;;26.30;47.63;99705.56;5014303;28;841;-65
2023/08/22 01:58:14;;;;;;;;;;;;;;;26.35;47.17;99699.13;5014546;28;895;-65
2023/08/22 02:00:40;;;;;;;;;;;;;;;26.42;46.89;99698.63;5014228;28;820;-64
2023/08/22 02:03:07;;;;;;;;;;;;;;;26.54;46.53;99700.16;5014251;28;899;-64
2023/08/22 02:05:34;;;;;;;;;;;;;;;26.57;46.64;99696.31;5014138;28;894;-65
2023/08/22 02:08:01;;;;;;;;;;;;;;;26.57;46.54;99704.06;5014041;28;1914;-64
2023/08/22 02:10:27;;;;;;;;;;;;;;;26.61;46.27;99705.34;5014321;28;899;-66
2023/08/22 02:12:54;;;;;;;;;;;;;;;26.70;46.15;99704.28;5014051;28;880;-65
2023/08/22 02:15:21;;;;;;;;;;;;;;;26.73;46.20;99700.41;5014029;28;856;-66
2023/08/22 02:17:48;;;;;;;;;;;;;;;26.74;46.08;99699.13;5013909;28;837;-64
2023/08/22 02:20:14;;;;;;;;;;;;;;;26.78;46.24;99705.31;5013917;28;935;-66
2023/08/22 02:22:41;;;;;;;;;;;;;;;26.81;46.13;99701.44;5013889;28;903;-64
2023/08/22 02:25:08;;;;;;;;;;;;;;;26.76;46.55;99704.31;5013866;28;844;-64
2023/08/22 02:27:34;;;;;;;;;;;;;;;26.79;46.26;99709.69;5013630;28;1886;-66
2023/08/22 02:30:01;;;;;;;;;;;;;;;26.83;45.95;99701.69;5013725;28;868;-66
2023/08/22 02:32:26;;;;;;;;;;;;;;;26.76;46.59;99701.47;5013771;28;883;-65
2023/08/22 02:34:53;;;;;;;;;;;;;;;26.75;46.88;99709.19;5013643;28;919;-67
2023/08/22 02:37:20;;;;;;;;;;;;;;;26.75;46.68;99709.19;5013558;28;881;-66
2023/08/22 02:39:47;;;;;;;;;;;;;;;26.73;47.02;99702.47;5013880;28;836;-65
2023/08/22 02:42:14;;;;;;;;;;;;;;;26.66;47.09;99707.38;5013472;28;911;-64
2023/08/22 02:44:40;;;;;;;;;;;;;;;26.59;47.44;99709.97;5013386;28;893;-65
2023/08/22 02:47:07;;;;;;;;;;;;;;;26.50;47.78;99696.81;5013376;28;1951;-65
2023/08/22 02:49:34;;;;;;;;;;;;;;;26.47;47.80;99715.59;5013387;28;867;-67
2023/08/22 02:52:02;;;;;;;;;;;;;;;26.49;47.86;99713.03;5013236;28;825;-66
2023/08/22 02:54:29;;;;;;;;;;;;;;;26.46;48.25;99721.81;4997778;28;1527;-67
2023/08/22 02:56:55;;;;;;;;;;;;;;;26.43;48.21;99720.00;5012688;28;848;-65
2023/08/22 02:59:22;;;;;;;;;;;;;;;26.40;48.42;99716.13;5013147;28;891;-65
2023/08/22 03:01:49;;;;;;;;;;;;;;;26.34;48.76;99714.59;5013188;28;873;-65
2023/08/22 03:04:16;;;;;;;;;;;;;;;26.27;48.96;99719.47;5013054;28;920;-65
2023/08/22 03:06:42;;;;;;;;;;;;;;;26.21;49.25;99718.69;5013353;28;911;-65
2023/08/22 03:09:09;;;;;;;;;;;;;;;26.19;49.23;99720.50;5012821;28;1973;-66
2023/08/22 03:11:35;;;;;;;;;;;;;;;26.14;49.53;99726.91;5012914;28;835;-66
2023/08/22 03:14:02;;;;;;;;;;;;;;;26.10;49.75;99721.53;5012873;28;817;-66
2023/08/22 03:16:29;;;;;;;;;;;;;;;26.09;49.96;99728.47;5012859;28;832;-67
2023/08/22 03:18:57;;;;;;;;;;;;;;;26.15;49.89;99734.13;5013128;28;892;-64
2023/08/22 03:21:24;;;;;;;;;;;;;;;26.17;49.83;99734.41;5012814;28;809;-68
2023/08/22 03:23:50;;;;;;;;;;;;;;;26.16;49.71;99732.84;5012717;28;797;-66
2023/08/22 03:26:17;;;;;;;;;;;;;;;26.15;50.08;99734.13;5012663;28;872;-65
2023/08/22 03:28:43;;;;;;;;;;;;;;;26.12;50.24;99730.28;5012652;28;1949;-65
2023/08/22 03:31:09;;;;;;;;;;;;;;;26.07;50.33;99737.50;5012876;28;858;-65
2023/08/22 03:33:36;;;;;;;;;;;;;;;26.01;50.71;99731.03;4994958;28;1412;-66
2023/08/22 03:36:04;;;;;;;;;;;;;;;25.98;50.49;99734.09;5012586;28;817;-65
2023/08/22 03:38:31;;;;;;;;;;;;;;;25.96;50.62;99723.28;5012515;28;816;-66
2023/08/22 03:40:57;;;;;;;;;;;;;;;26.00;50.57;99723.81;5012416;28;895;-65
2023/08/22 03:43:24;;;;;;;;;;;;;;;26.05;50.67;99727.94;5012631;28;1006;-67
2023/08/22 03:45:51;;;;;;;;;;;;;;;26.08;50.41;99721.25;5012333;28;836;-67
2023/08/22 03:48:17;;;;;;;;;;;;;;;26.15;50.07;99734.91;5012271;28;1882;-68
2023/08/22 03:50:44;;;;;;;;;;;;;;;26.23;50.20;99733.13;5012292;28;915;-65
2023/08/22 03:53:12;;;;;;;;;;;;;;;26.23;50.20;99723.84;5012285;28;879;-65
2023/08/22 03:55:39;;;;;;;;;;;;;;;26.23;50.14;99721.03;5031532;28;1298;-65
2023/08/22 03:58:05;;;;;;;;;;;;;;;26.26;50.02;99725.66;5031973;28;820;-66
2023/08/22 04:00:33;;;;;;;;;;;;;;;26.30;50.12;99725.41;5031833;28;880;-71
2023/08/22 04:02:59;;;;;;;;;;;;;;;26.37;49.78;99727.72;5031979;28;832;-67
2023/08/22 04:05:26;;;;;;;;;;;;;;;26.43;49.62;99726.44;5031809;28;828;-70
2023/08/22 04:07:53;;;;;;;;;;;;;;;26.52;49.31;99724.63;5031209;28;2001;-68
2023/08/22 04:10:19;;;;;;;;;;;;;;;26.63;49.19;99724.66;5031798;28;836;-66
2023/08/22 04:12:46;;;;;;;;;;;;;;;26.70;49.15;99735.47;5031727;28;848;-68
2023/08/22 04:15:12;;;;;;;;;;;;;;;26.73;48.99;99725.94;5031828;28;844;-66
2023/08/22 04:17:41;;;;;;;;;;;;;;;26.76;48.91;99732.66;5031694;28;820;-68
2023/08/22 04:20:39;;;;;;;;;;;;;;;26.80;49.02;99730.28;5031776;28;845;-66
2023/08/22 04:23:06;;;;;;;;;;;;;;;26.82;49.01;99730.56;5031727;28;832;-66
2023/08/22 04:25:32;;;;;;;;;;;;;;;26.84;49.16;99728.78;5031553;28;999;-66
2023/08/22 04:27:59;;;;;;;;;;;;;;;26.80;49.51;99724.63;5031590;28;1952;-68
2023/08/22 04:30:26;;;;;;;;;;;;;;;26.83;49.54;99726.44;5031824;28;895;-65
2023/08/22 04:35:54;;;;;;;;;;;;;;;26.94;49.56;99739.81;5031204;28;825;-68
2023/08/22 04:38:20;;;;;;;;;;;;;;;27.14;49.48;99738.75;5031543;28;927;-67
2023/08/22 04:40:47;;;;;;;;;;;;;;;27.26;49.17;99740.28;5031541;28;834;-67
2023/08/22 04:43:12;;;;;;;;;;;;;;;27.35;49.00;99740.00;5031622;28;941;-68
2023/08/22 04:58:02;;;;;;;;;;;;;;;27.94;48.11;99748.56;5011459;28;710;-68
2023/08/22 05:00:28;;;;;;;;;;;;;;;28.02;48.21;99743.84;5011540;28;840;-68
2023/08/22 05:02:55;;;;;;;;;;;;;;;28.08;48.08;99758.81;5011577;28;876;-69
2023/08/22 05:05:21;;;;;;;;;;;;;;;28.16;47.63;99745.56;5011706;28;860;-70
2023/08/22 05:07:48;;;;;;;;;;;;;;;28.28;47.60;99749.88;5011448;28;1977;-70
2023/08/22 05:10:15;;;;;;;;;;;;;;;28.36;47.21;99749.28;5011555;28;915;-66
2023/08/22 05:12:42;;;;;;;;;;;;;;;28.43;46.88;99757.25;5011491;28;849;-68
2023/08/22 05:15:08;;;;;;;;;;;;;;;28.54;46.69;99756.44;5011401;28;868;-68
2023/08/22 05:17:37;;;;;;;;;;;;;;;28.59;46.53;99755.59;5011692;28;861;-69
2023/08/22 05:20:06;;;;;;;;;;;;;;;28.71;46.45;99754.97;5012925;28;876;-67
2023/08/22 05:22:32;;;;;;;;;;;;;;;28.86;46.13;99753.81;5015134;28;880;-67
2023/08/22 05:24:59;;;;;;;;;;;;;;;29.06;45.48;99761.91;5014855;28;974;-67
2023/08/22 05:27:26;;;;;;;;;;;;;;;29.11;45.56;99758.25;5014934;28;1953;-69
2023/08/22 05:29:53;;;;;;;;;;;;;;;29.11;45.61;99769.63;5014835;28;820;-67
2023/08/22 05:32:20;;;;;;;;;;;;;;;29.14;45.61;99764.19;5014940;28;835;-67
2023/08/22 05:34:46;;;;;;;;;;;;;;;29.18;45.48;99767.50;5014743;28;950;-66
2023/08/22 05:37:12;;;;;;;;;;;;;;;29.38;45.24;99761.34;5014793;28;812;-66
2023/08/22 05:39:39;;;;;;;;;;;;;;;29.62;45.08;99776.84;5014690;28;876;-68
2023/08/22 05:42:06;;;;;;;;;;;;;;;29.75;44.70;99768.41;5014638;28;852;-68
2023/08/22 05:44:34;;;;;;;;;;;;;;;29.87;44.57;99780.41;4997218;28;1318;-69
2023/08/22 05:47:01;;;;;;;;;;;;;;;30.11;43.43;99771.78;5014615;28;832;-68
2023/08/22 05:49:27;;;;;;;;;;;;;;;30.47;43.13;99767.91;5014384;28;1894;-67
2023/08/22 05:52:03;;;;;;;;;;;;;;;30.69;42.25;99766.78;5014533;28;882;-69
2023/08/22 05:54:30;;;;;;;;;;;;;;;30.50;42.56;99763.97;5014210;28;836;-70
2023/08/22 05:56:57;;;;;;;;;;;;;;;30.56;42.90;99766.75;5030487;28;1404;-69
2023/08/22 05:59:23;;;;;;;;;;;;;;;30.71;42.55;99770.63;5016384;28;1249;-73
2023/08/22 06:01:50;;;;;;;;;;;;;;;30.72;42.47;99760.75;5034180;28;875;-71
2023/08/22 06:04:20;;;;;;;;;;;;;;;30.70;42.33;99766.25;5016274;28;1333;-73
2023/08/22 06:06:46;;;;;;;;;;;;;;;30.71;42.34;99769.84;5034106;28;1183;-71
2023/08/22 06:12:14;;;;;;;;;;;;;;;30.82;42.39;99772.50;5033713;28;788;-68
2023/08/22 06:14:41;;;;;;;;;;;;;;;30.94;42.14;99767.41;5033850;28;852;-69
2023/08/22 06:17:07;;;;;;;;;;;;;;;30.97;42.22;99777.72;5033906;28;828;-67
2023/08/22 06:19:33;;;;;;;;;;;;;;;31.00;42.02;99778.72;5033779;28;895;-68
2023/08/22 06:22:00;;;;;;;;;;;;;;;30.98;41.82;99782.09;5033699;28;859;-69
2023/08/22 06:24:27;;;;;;;;;;;;;;;31.06;41.86;99782.22;5033503;28;926;-66
2023/08/22 06:26:53;;;;;;;;;;;;;;;31.13;41.70;99793.00;5033733;28;824;-68
2023/08/22 06:29:21;;;;;;;;;;;;;;;31.21;41.39;99784.56;5033705;28;1890;-68
2023/08/22 06:31:47;;;;;;;;;;;;;;;31.37;41.48;99794.09;5032732;28;824;-66
2023/08/22 06:34:14;;;;;;;;;;;;;;;31.65;40.63;99793.59;5033512;28;820;-68
2023/08/22 06:36:41;;;;;;;;;;;;;;;31.86;40.21;99797.31;5033330;28;907;-66
2023/08/22 06:39:07;;;;;;;;;;;;;;;32.04;39.49;99792.78;5033430;28;891;-70
2023/08/22 06:41:35;;;;;;;;;;;;;;;32.21;39.28;99795.25;5033451;28;993;-67
2023/08/22 06:44:22;;;;;;;;;;;;;;;32.61;38.35;99795.13;5033685;28;915;-67
2023/08/22 06:46:48;;;;;;;;;;;;;;;33.16;37.86;99788.53;5033202;28;865;-66
2023/08/22 06:49:14;;;;;;;;;;;;;;;33.70;36.81;99797.47;5033171;28;1894;-68
2023/08/22 06:51:41;;;;;;;;;;;;;;;34.29;35.53;99797.53;5033213;28;887;-68
2023/08/22 06:54:08;;;;;;;;;;;;;;;34.74;34.13;99789.59;5032979;28;813;-70
2023/08/22 06:56:34;;;;;;;;;;;;;;;35.01;33.60;99794.94;5032788;28;1265;-68
2023/08/22 06:59:01;;;;;;;;;;;;;;;35.03;34.00;99801.63;5033014;28;875;-67
2023/08/22 07:01:28;;;;;;;;;;;;;;;35.25;33.16;99796.47;5032975;28;848;-66
2023/08/22 07:03:54;;;;;;;;;;;;;;;35.58;32.91;99795.25;5032897;28;852;-69
2023/08/22 07:06:20;;;;;;;;;;;;;;;35.66;32.44;99785.88;5032993;28;840;-68
2023/08/22 07:08:46;;;;;;;;;;;;;;;35.69;32.60;99788.34;5032603;28;1918;-68
2023/08/22 07:11:13;;;;;;;;;;;;;;;36.15;31.46;99788.16;5032869;28;832;-67
2023/08/22 07:13:40;;;;;;;;;;;;;;;36.07;31.73;99790.28;5032798;28;828;-68
2023/08/22 07:16:06;;;;;;;;;;;;;;;36.03;31.45;99789.16;5015091;28;1275;-68
2023/08/22 07:18:33;;;;;;;;;;;;;;;36.51;31.58;99786.19;5032775;28;887;-66
2023/08/22 07:21:04;;;;;;;;;;;;;;;37.09;30.14;99794.78;5032792;28;848;-67
2023/08/22 07:23:32;;;;;;;;;;;;;;;36.88;30.27;99792.28;5032435;28;872;-67
2023/08/22 07:25:58;;;;;;;;;;;;;;;36.84;30.22;99794.81;5032533;28;828;-65
2023/08/22 07:28:25;;;;;;;;;;;;;;;37.28;30.22;99802.88;5032370;28;1894;-68
2023/08/22 07:30:53;;;;;;;;;;;;;;;37.41;29.60;99805.44;5032398;28;914;-67
2023/08/22 07:33:20;;;;;;;;;;;;;;;37.55;29.76;99806.63;5032541;28;856;-67
2023/08/22 07:35:47;;;;;;;;;;;;;;;37.71;29.34;99797.84;5032447;28;935;-68
2023/08/22 07:38:14;;;;;;;;;;;;;;;37.89;28.88;99804.34;5032321;28;825;-67
2023/08/22 07:40:41;;;;;;;;;;;;;;;38.10;28.42;99806.78;5032222;28;844;-67
2023/08/22 07:43:08;;;;;;;;;;;;;;;38.09;28.33;99803.16;5032285;28;920;-66
2023/08/22 07:45:34;;;;;;;;;;;;;;;38.80;27.78;99810.94;5032159;28;1002;-67
2023/08/22 07:48:01;;;;;;;;;;;;;;;39.10;26.38;99802.41;5032017;28;1894;-68
2023/08/22 07:50:27;;;;;;;;;;;;;;;39.03;26.80;99789.63;5032302;28;915;-66
2023/08/22 07:52:55;;;;;;;;;;;;;;;39.32;26.75;99800.44;5031968;28;911;-67
2023/08/22 07:55:23;;;;;;;;;;;;;;;39.64;25.83;99807.94;5031828;28;1223;-66
2023/08/22 07:57:51;;;;;;;;;;;;;;;39.25;25.97;99810.03;5032037;28;879;-66
2023/08/22 08:00:18;;;;;;;;;;;;;;;39.12;26.29;99805.44;5031961;28;848;-66
2023/08/22 08:02:45;;;;;;;;;;;;;;;38.99;26.45;99807.38;5031899;28;860;-68
2023/08/22 08:05:14;;;;;;;;;;;;;;;39.09;26.32;99803.75;5031942;28;836;-67
2023/08/22 08:07:41;;;;;;;;;;;;;;;39.28;26.26;99800.91;5031764;28;1918;-64
2023/08/22 08:10:07;;;;;;;;;;;;;;;39.54;26.25;99804.28;5031795;28;816;-67
2023/08/22 08:12:34;;;;;;;;;;;;;;;39.74;25.63;99800.03;5031857;28;835;-67
2023/08/22 08:15:01;;;;;;;;;;;;;;;39.68;25.95;99804.59;5031902;28;844;-67
2023/08/22 08:17:28;;;;;;;;;;;;;;;40.24;25.07;99800.72;5031812;28;911;-67
2023/08/22 08:19:55;;;;;;;;;;;;;;;40.18;24.77;99793.16;5031685;28;883;-66
2023/08/22 08:22:22;;;;;;;;;;;;;;;39.71;25.57;99794.69;5031613;28;857;-64
2023/08/22 08:24:49;;;;;;;;;;;;;;;40.00;25.06;99792.56;5031741;28;840;-65
2023/08/22 08:27:15;;;;;;;;;;;;;;;40.25;24.65;99794.34;5031700;28;899;-65
2023/08/22 08:29:42;;;;;;;;;;;;;;;40.74;24.21;99773.94;5031581;28;908;-67
2023/08/22 08:32:08;;;;;;;;;;;;;;;40.34;24.27;99787.78;5031642;28;863;-65
2023/08/22 08:34:35;;;;;;;;;;;;;;;40.44;24.45;99784.06;5031553;28;825;-67
2023/08/22 08:37:01;;;;;;;;;;;;;;;40.96;23.73;99780.50;5031620;28;840;-66
2023/08/22 08:39:28;;;;;;;;;;;;;;;41.06;23.17;99789.16;5031676;28;829;-65
2023/08/22 08:42:03;;;;;;;;;;;;;;;40.64;23.56;99782.63;5031467;28;1090;-65
2023/08/22 08:44:32;;;;;;;;;;;;;;;40.74;23.54;99791.31;5031426;28;1016;-66
2023/08/22 08:46:59;;;;;;;;;;;;;;;40.95;23.57;99779.75;5031514;28;964;-65
2023/08/22 08:49:26;;;;;;;;;;;;;;;40.57;23.58;99786.47;5031402;28;1882;-65
2023/08/22 08:51:53;;;;;;;;;;;;;;;40.01;24.35;99793.34;5031280;28;887;-64
2023/08/22 08:54:21;;;;;;;;;;;;;;;39.76;24.56;99785.72;5031522;28;824;-66
2023/08/22 08:56:48;;;;;;;;;;;;;;;39.46;24.91;99801.56;5035055;28;1271;-67
2023/08/22 08:59:15;;;;;;;;;;;;;;;39.43;25.05;99791.19;5035324;28;853;-67
2023/08/22 09:01:44;;;;;;;;;;;;;;;39.80;24.07;99788.16;5035128;28;850;-67
2023/08/22 09:04:10;;;;;;;;;;;;;;;40.09;24.21;99788.13;5035209;28;840;-66
2023/08/22 09:06:37;;;;;;;;;;;;;;;40.47;23.92;99788.66;5035186;28;862;-68
2023/08/22 09:09:08;;;;;;;;;;;;;;;40.43;23.52;99783.31;5017299;28;1958;-66
2023/08/22 09:11:41;;;;;;;;;;;;;;;40.20;24.48;99790.41;5017456;28;1206;-66
2023/08/22 09:14:08;;;;;;;;;;;;;;;40.33;24.18;99792.06;5035019;28;899;-68
2023/08/22 09:16:35;;;;;;;;;;;;;;;39.50;24.80;99789.56;5034996;28;836;-66
2023/08/22 09:19:02;;;;;;;;;;;;;;;39.42;24.80;99789.69;5034816;28;906;-67
2023/08/22 09:21:29;;;;;;;;;;;;;;;39.71;24.91;99786.03;5034803;28;864;-67
2023/08/22 09:24:09;;;;;;;;;;;;;;;39.73;24.90;99789.84;5034771;28;823;-67
2023/08/22 09:26:36;;;;;;;;;;;;;;;39.43;24.57;99788.31;5034731;28;927;-66
2023/08/22 09:29:07;;;;;;;;;;;;;;;39.70;24.86;99784.50;5034670;28;1964;-66
2023/08/22 09:31:36;;;;;;;;;;;;;;;39.87;24.81;99772.03;5034714;28;896;-66
2023/08/22 09:34:14;;;;;;;;;;;;;;;39.72;24.25;99790.44;5034604;28;915;-67
2023/08/22 09:36:46;;;;;;;;;;;;;;;39.36;24.75;99789.19;5034724;28;876;-68
2023/08/22 09:39:16;;;;;;;;;;;;;;;39.23;24.87;99778.09;5034579;28;1203;-68
2023/08/22 09:41:43;;;;;;;;;;;;;;;39.17;25.11;99781.25;5034482;28;867;-66
2023/08/22 09:44:10;;;;;;;;;;;;;;;39.29;25.25;99775.66;5034881;28;1019;-66
2023/08/22 09:46:41;;;;;;;;;;;;;;;38.74;26.05;99769.28;5034377;28;915;-66
2023/08/22 09:49:11;;;;;;;;;;;;;;;38.96;25.15;99773.94;5034214;28;1881;-66
2023/08/22 09:51:38;;;;;;;;;;;;;;;38.20;25.02;99775.88;5034298;28;891;-69
2023/08/22 09:54:05;;;;;;;;;;;;;;;37.44;26.70;99778.31;5034254;28;869;-66
2023/08/22 09:56:32;;;;;;;;;;;;;;;37.17;26.44;99773.22;5034130;28;1424;-67
2023/08/22 09:59:00;;;;;;;;;;;;;;;36.89;26.87;99765.75;5034119;28;817;-66
2023/08/22 10:01:28;;;;;;;;;;;;;;;36.74;27.26;99778.19;5034113;28;1059;-68
2023/08/22 10:03:55;;;;;;;;;;;;;;;36.54;27.64;99762.00;5034049;28;832;-70
2023/08/22 10:06:26;;;;;;;;;;;;;;;36.42;27.78;99772.44;5032841;28;919;-68
2023/08/22 10:08:52;;;;;;;;;;;;;;;36.34;27.97;99764.66;5034120;28;1979;-68
2023/08/22 10:43:36;;;;;;;;;;;;;;;41.55;23.42;99738.13;5932030;23;1553;-63
2023/08/22 10:46:03;;;;;;;;;;;;;;;41.45;23.24;99730.91;5013369;28;848;-64
2023/08/22 10:48:29;;;;;;;;;;;;;;;40.16;24.26;99723.53;5013444;28;1969;-66
2023/08/22 10:51:03;;;;;;;;;;;;;;;38.59;25.60;99727.00;5013443;28;820;-65
2023/08/22 10:53:30;;;;;;;;;;;;;;;37.50;26.75;99729.06;5013382;28;898;-66
2023/08/22 10:56:16;;;;;;;;;;;;;;;36.98;27.72;99730.56;5013363;28;891;-63
2023/08/22 10:58:43;;;;;;;;;;;;;;;38.19;26.61;99716.63;5013218;28;895;-68
2023/08/22 11:01:13;;;;;;;;;;;;;;;38.54;24.83;99713.63;5013321;28;882;-72
2023/08/22 11:03:40;;;;;;;;;;;;;;;38.72;24.92;99717.91;5013426;28;828;-64
2023/08/22 11:06:14;;;;;;;;;;;;;;;39.81;24.58;99715.22;5013191;28;820;-65
2023/08/22 11:08:44;;;;;;;;;;;;;;;40.18;23.37;99738.16;5013044;28;1890;-67
2023/08/22 11:11:14;;;;;;;;;;;;;;;39.44;23.55;99731.28;5013286;28;887;-65
2023/08/22 11:13:41;;;;;;;;;;;;;;;38.35;24.45;99725.81;5013139;28;840;-65
2023/08/22 11:16:10;;;;;;;;;;;;;;;37.34;26.08;99719.81;5012896;28;905;-64
2023/08/22 11:18:37;;;;;;;;;;;;;;;36.90;27.08;99714.72;5012574;28;820;-64
2023/08/22 11:21:04;;;;;;;;;;;;;;;36.97;26.97;99713.88;5012856;28;887;-65
2023/08/22 11:23:31;;;;;;;;;;;;;;;37.79;26.40;99714.88;4995235;28;1293;-64
2023/08/22 11:25:58;;;;;;;;;;;;;;;38.78;25.32;99703.94;5012706;28;864;-65
2023/08/22 11:28:35;;;;;;;;;;;;;;;40.08;24.51;99710.63;5011520;28;1882;-65
2023/08/22 11:31:02;;;;;;;;;;;;;;;41.12;23.38;99691.00;5012720;28;860;-65
2023/08/22 11:33:49;;;;;;;;;;;;;;;42.15;22.18;99698.44;5012705;28;817;-65
2023/08/22 11:36:16;;;;;;;;;;;;;;;42.67;21.50;99700.19;5012720;28;856;-65
2023/08/22 11:38:43;;;;;;;;;;;;;;;41.74;21.84;99704.50;5012808;28;832;-65
2023/08/22 11:41:10;;;;;;;;;;;;;;;39.88;23.59;99718.59;5012784;28;824;-64
2023/08/22 11:43:44;;;;;;;;;;;;;;;38.53;24.73;99709.19;5012551;28;1195;-64
2023/08/22 11:46:11;;;;;;;;;;;;;;;37.78;25.84;99710.47;5012720;28;821;-64
2023/08/22 11:48:37;;;;;;;;;;;;;;;36.89;27.05;99725.44;5012652;28;1962;-64
2023/08/22 11:51:04;;;;;;;;;;;;;;;36.49;28.14;99722.69;5012490;28;950;-64
2023/08/22 11:53:31;;;;;;;;;;;;;;;36.49;28.44;99714.06;5012419;28;895;-64
2023/08/22 11:55:58;;;;;;;;;;;;;;;36.51;27.75;99712.16;5012412;28;860;-65
2023/08/22 11:58:24;;;;;;;;;;;;;;;36.64;28.04;99722.63;5012287;28;927;-64
2023/08/22 12:00:55;;;;;;;;;;;;;;;36.54;28.27;99713.84;5012268;28;797;-64
2023/08/22 12:03:22;;;;;;;;;;;;;;;36.38;29.44;99716.09;5012197;28;959;-64
2023/08/22 12:05:48;;;;;;;;;;;;;;;36.38;29.68;99716.09;5012210;28;856;-64
2023/08/22 12:08:16;;;;;;;;;;;;;;;36.39;30.02;99711.09;5012059;28;1943;-64
2023/08/22 12:10:46;;;;;;;;;;;;;;;36.21;29.72;99713.16;4994481;28;1351;-65
2023/08/22 12:13:14;;;;;;;;;;;;;;;36.22;30.31;99708.91;5012080;28;848;-67
2023/08/22 12:15:41;;;;;;;;;;;;;;;36.20;29.93;99713.72;5031712;28;861;-64
2023/08/22 12:18:07;;;;;;;;;;;;;;;36.13;30.42;99713.19;5031808;28;883;-64
2023/08/22 12:20:35;;;;;;;;;;;;;;;36.23;30.14;99707.56;5031850;28;914;-64
2023/08/22 12:23:02;;;;;;;;;;;;;;;36.39;29.69;99697.47;5031943;28;892;-68
2023/08/22 12:25:29;;;;;;;;;;;;;;;36.42;29.66;99698.41;5031934;28;855;-64
2023/08/22 12:40:10;;;;;;;;;;;;;;;36.08;29.84;99696.91;5054872;28;642;-64
2023/08/22 12:42:39;;;;;;;;;;;;;;;35.78;29.86;99701.50;5052154;28;1239;-71
2023/08/22 12:45:07;;;;;;;;;;;;;;;35.52;30.41;99693.34;5051030;28;1240;-69
2023/08/22 12:47:35;;;;;;;;;;;;;;;35.30;30.82;99694.97;5055492;28;1918;-68
2023/08/22 12:50:02;;;;;;;;;;;;;;;35.21;30.97;99699.22;5055459;28;804;-69
2023/08/22 12:52:29;;;;;;;;;;;;;;;35.24;30.82;99700.16;5037503;28;977;-64
2023/08/22 12:54:55;;;;;;;;;;;;;;;35.42;30.95;99704.69;5055325;28;896;-64
2023/08/22 12:57:22;;;;;;;;;;;;;;;35.69;30.96;99707.84;5055310;28;827;-64
2023/08/22 12:59:49;;;;;;;;;;;;;;;35.91;30.49;99700.47;5055156;28;824;-65
2023/08/22 13:02:16;;;;;;;;;;;;;;;36.57;29.98;99711.91;5055243;28;816;-64
2023/08/22 13:04:42;;;;;;;;;;;;;;;38.07;28.32;99707.00;5055239;28;910;-65
2023/08/22 13:07:09;;;;;;;;;;;;;;;38.82;26.66;99709.28;5055197;28;811;-65
2023/08/22 13:09:35;;;;;;;;;;;;;;;38.54;26.73;99702.81;5054923;28;1886;-65
2023/08/22 13:12:02;;;;;;;;;;;;;;;38.01;26.90;99701.50;5054905;28;867;-65
2023/08/22 13:14:29;;;;;;;;;;;;;;;37.01;28.22;99705.56;5054891;28;905;-66
2023/08/22 13:19:57;;;;;;;;;;;;;;;36.15;30.13;99709.75;5054245;28;721;-65
2023/08/22 13:22:26;;;;;;;;;;;;;;;35.24;32.17;99712.41;5054745;28;853;-65
2023/08/22 13:24:53;;;;;;;;;;;;;;;34.21;35.14;99724.28;5054805;28;874;-65
2023/08/22 13:27:19;;;;;;;;;;;;;;;33.64;37.26;99716.66;5054698;28;871;-66
2023/08/22 13:29:46;;;;;;;;;;;;;;;33.63;37.61;99712.22;5054503;28;1878;-64
2023/08/22 13:32:12;;;;;;;;;;;;;;;33.81;37.87;99719.00;5054652;28;808;-64
2023/08/22 13:34:39;;;;;;;;;;;;;;;34.01;37.21;99715.22;5054504;28;994;-64
2023/08/22 13:37:06;;;;;;;;;;;;;;;34.23;35.45;99710.91;5054532;28;898;-65
2023/08/22 13:39:33;;;;;;;;;;;;;;;34.62;34.07;99703.06;5054499;28;899;-65
2023/08/22 13:41:59;;;;;;;;;;;;;;;34.67;33.02;99707.13;5054146;28;1039;-64
2023/08/22 13:44:26;;;;;;;;;;;;;;;34.70;33.37;99697.38;5054247;28;1331;-64
2023/08/22 13:46:52;;;;;;;;;;;;;;;35.20;33.72;99694.78;5054357;28;816;-65
2023/08/22 13:49:19;;;;;;;;;;;;;;;35.63;33.94;99695.03;5054133;28;1902;-65
2023/08/22 13:51:46;;;;;;;;;;;;;;;35.32;34.78;99700.91;5054249;28;899;-64
2023/08/22 13:54:13;;;;;;;;;;;;;;;35.17;35.43;99702.47;5054178;28;868;-66
2023/08/22 13:56:41;;;;;;;;;;;;;;;35.07;34.92;99704.38;5054197;28;812;-66
2023/08/22 13:59:07;;;;;;;;;;;;;;;35.97;33.80;99694.47;5036283;28;945;-65
2023/08/22 14:01:34;;;;;;;;;;;;;;;36.91;31.97;99701.81;5054063;28;825;-65
2023/08/22 14:04:01;;;;;;;;;;;;;;;36.95;31.38;99697.16;5054055;28;888;-69
2023/08/22 14:06:28;;;;;;;;;;;;;;;37.05;31.35;99703.03;5053904;28;919;-65
2023/08/22 14:08:54;;;;;;;;;;;;;;;37.25;30.35;99697.47;5053965;28;1886;-66
2023/08/22 14:11:21;;;;;;;;;;;;;;;37.33;30.72;99687.38;5053837;28;835;-66
2023/08/22 14:13:48;;;;;;;;;;;;;;;37.27;30.44;99689.75;5053815;28;879;-68